KAZO/AZO METAR and TAF weather

Enter ICAO airport designator
Station Type Date Time Source
KAZO METAR 2020/09/23 01:53 UTC NOAA

KAZO 230153Z 00000KT 10SM CLR 14/10 A3011 RMK AO2 SLP198 T01390100


Station Type Date Time Source
KAZO Decoded METAR 2020/09/23 01:53 UTC NOAA

KALAMAZOO/BATTLE CREEK AIRPORT, MI, United States (KAZO) 42-14N 085-33W 272M
Sep 22, 2020 - 09:53 PM EDT / 2020.09.23 0153 UTC
Wind: Calm:0
Visibility: 10 mile(s):0
Sky conditions: clear
Temperature: 57.0 F (13.9 C)
Dew Point: 50.0 F (10.0 C)
Relative Humidity: 77%
Pressure (altimeter): 30.11 in. Hg (1019 hPa)
ob: KAZO 230153Z 00000KT 10SM CLR 14/10 A3011 RMK AO2 SLP198 T01390100
cycle: 2

Station Type Date Time Source
KAZO TAF 2020/09/22 18:39 UTC NOAA

TAF KAZO 221735Z 2218/2318 25008KT P6SM SCT200
FM230100 23004KT P6SM SKC
FM231400 24008KT P6SM SCT040

Example: see airport list